createdAt,value
2022-08-07T15:25:36.507Z,25.30
2022-08-07T15:36:05.257Z,24.80
2022-08-07T15:42:45.017Z,24.80
2022-08-07T15:46:51.885Z,24.80
2022-08-07T15:57:39.241Z,24.80
2022-08-07T16:02:40.569Z,24.70
2022-08-07T16:08:32.105Z,24.50
2022-08-07T16:13:58.829Z,24.70
2022-08-07T16:19:20.321Z,24.80
2022-08-07T16:24:55.499Z,24.80
2022-08-07T16:30:29.049Z,24.60
2022-08-07T16:35:58.794Z,24.60
2022-08-07T16:41:20.796Z,24.50
2022-08-07T16:47:04.868Z,24.60
2022-08-07T16:52:51.397Z,24.50
2022-08-07T16:58:03.955Z,24.60
2022-08-07T17:03:58.473Z,24.70
2022-08-07T17:10:06.725Z,24.30
2022-08-07T17:14:46.072Z,24.30
2022-08-07T17:20:01.806Z,24.10
2022-08-07T17:25:51.480Z,24.10
2022-08-07T17:31:34.385Z,23.80
2022-08-07T17:37:08.925Z,24.00
2022-08-07T17:42:59.187Z,24.00
2022-08-07T17:48:12.654Z,24.00
2022-08-07T17:53:59.601Z,23.80
2022-08-07T17:58:56.906Z,24.00
2022-08-07T18:04:37.038Z,23.80
2022-08-07T18:10:04.287Z,23.70
2022-08-07T18:15:53.452Z,23.50
2022-08-07T18:21:51.529Z,23.30
2022-08-07T18:27:06.678Z,23.30
2022-08-07T18:32:30.111Z,23.00
2022-08-07T18:38:55.823Z,22.90
2022-08-07T18:43:57.575Z,22.80
2022-08-07T18:50:31.818Z,22.70
2022-08-07T18:54:38.747Z,22.60
2022-08-07T19:00:33.221Z,22.40
2022-08-07T19:06:06.940Z,22.10
2022-08-07T19:11:35.984Z,22.00
2022-08-07T19:17:06.760Z,21.80
2022-08-07T19:22:31.239Z,21.40
2022-08-07T19:30:56.494Z,21.00
2022-08-07T19:33:13.066Z,20.70
2022-08-07T19:38:17.714Z,20.50
2022-08-07T19:43:45.129Z,20.30
2022-08-07T19:48:53.647Z,20.10
2022-08-07T19:54:33.035Z,19.90
2022-08-07T19:59:27.225Z,19.70
2022-08-07T20:04:48.839Z,19.50
2022-08-07T20:10:36.967Z,19.40
2022-08-07T20:15:22.329Z,19.40
2022-08-07T20:20:26.811Z,19.20
2022-08-07T20:25:40.288Z,19.20
2022-08-07T20:30:53.505Z,19.10
2022-08-07T20:36:03.154Z,19.00
2022-08-07T20:41:08.090Z,18.80
2022-08-07T20:46:28.294Z,18.70
2022-08-07T20:51:36.071Z,18.60
2022-08-07T20:56:48.953Z,18.50
2022-08-07T21:01:55.082Z,18.50
2022-08-07T21:07:04.376Z,18.60
2022-08-07T21:12:25.906Z,18.60
2022-08-07T21:18:02.841Z,18.50
2022-08-07T21:23:08.491Z,18.30
2022-08-07T21:28:16.694Z,18.20
2022-08-07T21:33:23.795Z,18.10
2022-08-07T21:38:49.874Z,17.90
2022-08-07T21:44:51.083Z,17.80
2022-08-07T21:50:03.775Z,17.60
2022-08-07T21:55:27.835Z,17.50
2022-08-07T22:00:32.095Z,17.40
2022-08-07T22:05:48.532Z,17.30
2022-08-07T22:10:57.973Z,17.20
2022-08-07T22:16:39.686Z,17.20
2022-08-07T22:22:05.368Z,17.20
2022-08-07T22:27:17.249Z,17.20
2022-08-07T22:32:34.662Z,17.20
2022-08-07T22:38:05.431Z,17.30
2022-08-07T22:43:13.319Z,17.40
2022-08-07T22:49:00.808Z,17.50
2022-08-07T22:54:27.709Z,17.50
2022-08-07T22:59:44.971Z,17.50
2022-08-07T23:06:09.870Z,17.40
2022-08-07T23:11:10.367Z,17.40
2022-08-07T23:16:44.402Z,17.30
2022-08-07T23:22:06.885Z,17.20
2022-08-07T23:27:33.569Z,17.10
2022-08-07T23:34:21.551Z,16.80
2022-08-07T23:39:11.665Z,16.60
2022-08-07T23:44:24.756Z,16.70
2022-08-07T23:50:01.914Z,16.70
2022-08-07T23:55:53.449Z,16.80
